createdAt,value
2019-02-23T00:01:13.577Z,8.38
2019-02-23T00:03:44.180Z,8.37
2019-02-23T00:06:13.910Z,8.37
2019-02-23T00:08:43.867Z,8.37
2019-02-23T00:11:13.113Z,8.36
2019-02-23T00:13:42.589Z,8.38
2019-02-23T00:16:14.875Z,8.37
2019-02-23T00:18:46.123Z,8.35
2019-02-23T00:21:17.788Z,8.35
2019-02-23T00:23:50.162Z,8.36
2019-02-23T00:26:22.125Z,8.37
2019-02-23T00:28:52.213Z,8.37
2019-02-23T00:31:23.585Z,8.38
2019-02-23T00:33:54.087Z,8.39
2019-02-23T00:36:24.286Z,8.38
2019-02-23T00:38:56.400Z,8.40
2019-02-23T00:41:31.044Z,8.40
2019-02-23T00:44:02.040Z,8.39
2019-02-23T00:46:35.665Z,8.39
2019-02-23T00:49:06.730Z,8.39
2019-02-23T00:51:36.075Z,8.40
2019-02-23T00:54:09.219Z,8.40
2019-02-23T00:56:43.120Z,8.41
2019-02-23T00:59:15.421Z,8.43
2019-02-23T01:01:51.845Z,8.44
2019-02-23T01:04:25.062Z,8.46
2019-02-23T01:06:55.558Z,8.46
2019-02-23T01:09:28.317Z,8.46
2019-02-23T01:11:58.286Z,8.49
2019-02-23T01:14:27.764Z,8.51
2019-02-23T01:16:57.436Z,8.52
2019-02-23T01:19:27.468Z,8.54
2019-02-23T01:21:58.139Z,8.57
2019-02-23T01:24:27.767Z,8.60
2019-02-23T01:26:57.383Z,8.62
2019-02-23T01:29:30.047Z,8.65
2019-02-23T01:31:59.774Z,8.69
2019-02-23T01:34:32.253Z,8.69
2019-02-23T01:37:07.123Z,8.70
2019-02-23T01:39:39.211Z,8.71
2019-02-23T01:42:09.441Z,8.71
2019-02-23T01:44:49.479Z,8.72
2019-02-23T01:47:20.273Z,8.73
2019-02-23T01:49:58.611Z,8.72
2019-02-23T01:52:24.186Z,8.71
2019-02-23T01:54:55.456Z,8.69
2019-02-23T02:00:13.404Z,8.65
2019-02-23T02:02:44.940Z,8.63
2019-02-23T02:05:15.675Z,8.62
2019-02-23T02:07:45.343Z,8.58
2019-02-23T02:10:16.226Z,8.59
2019-02-23T02:12:48.377Z,8.57
2019-02-23T02:15:23.357Z,8.56
2019-02-23T02:17:56.289Z,8.55
2019-02-23T02:20:26.513Z,8.54
2019-02-23T02:22:56.575Z,8.55
2019-02-23T02:25:27.317Z,8.55
2019-02-23T02:27:56.303Z,8.53
2019-02-23T02:30:27.063Z,8.54
2019-02-23T02:32:57.243Z,8.53
2019-02-23T02:35:27.819Z,8.53
2019-02-23T02:38:01.294Z,8.51
2019-02-23T02:40:32.753Z,8.51
2019-02-23T02:43:04.277Z,8.50
2019-02-23T02:45:47.396Z,8.48
2019-02-23T02:48:18.932Z,8.47
2019-02-23T02:50:50.960Z,8.45
2019-02-23T02:53:23.605Z,8.44
2019-02-23T02:55:54.259Z,8.42
2019-02-23T02:58:24.282Z,8.40
2019-02-23T03:00:54.364Z,8.39
2019-02-23T03:03:28.534Z,8.38
2019-02-23T03:06:01.882Z,8.37
2019-02-23T03:08:33.631Z,8.36
2019-02-23T03:11:03.237Z,8.34
2019-02-23T03:13:37.003Z,8.32
2019-02-23T03:16:13.921Z,8.29
2019-02-23T03:18:48.074Z,8.26
2019-02-23T03:21:19.156Z,8.24
2019-02-23T03:23:49.442Z,8.23
2019-02-23T03:26:21.153Z,8.23
2019-02-23T03:28:50.780Z,8.23
2019-02-23T03:31:21.825Z,8.22
2019-02-23T03:33:54.171Z,8.22
2019-02-23T03:36:24.471Z,8.24
2019-02-23T03:38:56.413Z,8.25
2019-02-23T03:41:26.846Z,8.26
2019-02-23T03:43:57.574Z,8.29
2019-02-23T03:46:30.703Z,8.31
2019-02-23T03:49:03.651Z,8.32
2019-02-23T03:51:44.122Z,8.33
2019-02-23T03:54:16.100Z,8.35
2019-02-23T03:56:46.863Z,8.37
2019-02-23T03:59:17.370Z,8.38
2019-02-23T04:01:47.408Z,8.38
2019-02-23T04:04:17.728Z,8.38
2019-02-23T04:06:49.136Z,8.38
2019-02-23T04:09:23.674Z,8.37
2019-02-23T04:11:55.715Z,8.35
2019-02-23T04:14:25.606Z,8.35
2019-02-23T04:16:56.052Z,8.34
2019-02-23T04:19:26.559Z,8.33
2019-02-23T04:21:57.289Z,8.32
2019-02-23T04:24:28.658Z,8.33
2019-02-23T04:27:03.319Z,8.33
2019-02-23T04:29:37.071Z,8.33
2019-02-23T04:32:10.053Z,8.34
2019-02-23T04:34:40.363Z,8.35
2019-02-23T04:37:17.684Z,8.35
2019-02-23T04:39:55.653Z,8.35
2019-02-23T04:42:28.570Z,8.36
2019-02-23T04:45:00.779Z,8.36
2019-02-23T04:47:40.458Z,8.37
2019-02-23T04:50:11.807Z,8.34
2019-02-23T04:52:44.362Z,8.34
2019-02-23T04:55:14.104Z,8.33
2019-02-23T04:57:45.924Z,8.32
2019-02-23T05:00:22.891Z,8.32
2019-02-23T05:02:52.810Z,8.31
2019-02-23T05:05:23.500Z,8.32
2019-02-23T05:07:53.739Z,8.32
2019-02-23T05:10:23.670Z,8.32
2019-02-23T05:12:58.357Z,8.32
2019-02-23T05:15:34.000Z,8.32
2019-02-23T05:18:05.096Z,8.33
2019-02-23T05:20:35.700Z,8.31
2019-02-23T05:23:12.325Z,8.31
2019-02-23T05:25:43.683Z,8.30
2019-02-23T05:28:15.218Z,8.30
2019-02-23T05:30:49.795Z,8.29
2019-02-23T05:33:21.374Z,8.27
2019-02-23T05:35:56.973Z,8.28
2019-02-23T05:38:27.371Z,8.26
2019-02-23T05:41:02.091Z,8.25
2019-02-23T05:43:32.472Z,8.25
2019-02-23T05:46:05.108Z,8.23
2019-02-23T05:48:35.092Z,8.22
2019-02-23T05:51:04.220Z,8.21
2019-02-23T05:53:38.597Z,8.20
2019-02-23T05:56:16.214Z,8.19
2019-02-23T05:58:44.573Z,8.18
2019-02-23T06:01:17.971Z,8.17
2019-02-23T06:03:49.160Z,8.15
2019-02-23T06:06:26.060Z,8.15
2019-02-23T06:09:02.491Z,8.13
2019-02-23T06:11:32.199Z,8.13
2019-02-23T06:14:03.217Z,8.11
2019-02-23T06:16:37.527Z,8.11
2019-02-23T06:19:13.071Z,8.10
2019-02-23T06:21:53.060Z,8.10
2019-02-23T06:24:12.070Z,8.11
2019-02-23T06:29:28.380Z,8.12
2019-02-23T06:31:58.142Z,8.13
2019-02-23T06:34:33.573Z,8.13
2019-02-23T06:37:05.398Z,8.13
2019-02-23T06:39:42.510Z,8.14
2019-02-23T06:42:13.879Z,8.14
2019-02-23T06:44:44.139Z,8.17
2019-02-23T06:47:14.845Z,8.17
2019-02-23T06:49:46.442Z,8.16
2019-02-23T06:52:19.359Z,8.16
2019-02-23T06:54:51.280Z,8.15
2019-02-23T06:57:22.960Z,8.16
2019-02-23T06:59:56.918Z,8.17
2019-02-23T07:02:28.682Z,8.19
2019-02-23T07:05:00.505Z,8.21
2019-02-23T07:07:30.560Z,8.22
2019-02-23T07:10:00.658Z,8.25
2019-02-23T07:12:30.882Z,8.26
2019-02-23T07:15:02.258Z,8.28
2019-02-23T07:17:32.737Z,8.30
2019-02-23T07:20:06.955Z,8.32
2019-02-23T07:22:37.834Z,8.35
2019-02-23T07:25:08.841Z,8.39
2019-02-23T07:27:46.268Z,8.41
2019-02-23T07:30:15.871Z,8.44
2019-02-23T07:32:48.007Z,8.47
2019-02-23T07:35:21.924Z,8.50
2019-02-23T07:37:55.258Z,8.53
2019-02-23T07:40:25.247Z,8.56
2019-02-23T07:42:55.834Z,8.60
2019-02-23T07:45:26.236Z,8.64
2019-02-23T07:47:57.042Z,8.68
2019-02-23T07:50:29.645Z,8.73
2019-02-23T07:53:01.170Z,8.78
2019-02-23T07:55:31.467Z,8.82
2019-02-23T07:58:04.641Z,8.87
2019-02-23T08:00:36.030Z,8.94
2019-02-23T08:05:43.131Z,9.12
2019-02-23T08:08:13.638Z,9.21
2019-02-23T08:10:43.697Z,9.29
2019-02-23T08:13:16.036Z,9.33
2019-02-23T08:15:48.211Z,9.39
2019-02-23T08:18:20.555Z,9.42
2019-02-23T08:20:54.023Z,9.46
2019-02-23T08:23:27.533Z,9.50
2019-02-23T08:26:00.903Z,9.56
2019-02-23T08:28:31.982Z,9.61
2019-02-23T08:31:01.513Z,9.66
2019-02-23T08:33:32.800Z,9.72
2019-02-23T08:36:04.676Z,9.78
2019-02-23T08:38:39.204Z,9.83
2019-02-23T08:41:09.887Z,9.89
2019-02-23T08:43:41.589Z,9.97
2019-02-23T08:46:10.777Z,10.03
2019-02-23T08:48:41.305Z,10.08
2019-02-23T08:51:16.008Z,10.12
2019-02-23T08:53:50.506Z,10.17
2019-02-23T08:56:22.660Z,10.22
2019-02-23T08:58:52.953Z,10.27
2019-02-23T09:01:25.699Z,10.32
2019-02-23T09:03:59.444Z,10.38
2019-02-23T09:06:34.139Z,10.42
2019-02-23T09:09:08.114Z,10.46
2019-02-23T09:11:36.094Z,10.51
2019-02-23T09:14:10.592Z,10.58
2019-02-23T09:16:43.587Z,10.63
2019-02-23T09:19:19.545Z,10.68
2019-02-23T09:21:50.510Z,10.74
2019-02-23T09:24:20.634Z,10.81
2019-02-23T09:26:56.076Z,10.86
2019-02-23T09:29:27.671Z,10.92
2019-02-23T09:31:56.903Z,10.97
2019-02-23T09:34:26.018Z,11.02
2019-02-23T09:37:07.006Z,11.07
2019-02-23T09:39:44.997Z,11.13
2019-02-23T09:42:16.700Z,11.19
2019-02-23T09:44:50.440Z,11.29
2019-02-23T09:47:26.013Z,11.36
2019-02-23T09:49:56.750Z,11.43
2019-02-23T09:52:30.884Z,11.47
2019-02-23T09:55:02.204Z,11.53
2019-02-23T09:57:31.504Z,11.54
2019-02-23T10:00:02.648Z,11.58
2019-02-23T10:02:35.057Z,11.63
2019-02-23T10:05:07.003Z,11.69
2019-02-23T10:07:39.025Z,11.71
2019-02-23T10:10:13.729Z,11.75
2019-02-23T10:12:46.567Z,11.75
2019-02-23T10:15:19.856Z,11.78
2019-02-23T10:17:49.443Z,11.81
2019-02-23T10:20:23.587Z,11.84
2019-02-23T10:22:56.823Z,11.90
2019-02-23T10:25:26.186Z,11.98
2019-02-23T10:27:59.280Z,12.04
2019-02-23T10:30:36.335Z,12.09
2019-02-23T10:33:06.230Z,12.18
2019-02-23T10:35:36.665Z,12.26
2019-02-23T10:38:12.812Z,12.30
2019-02-23T10:40:48.876Z,12.38
2019-02-23T10:43:20.197Z,12.46
2019-02-23T10:45:51.374Z,12.51
2019-02-23T10:48:24.258Z,12.55
2019-02-23T10:50:55.993Z,12.60
2019-02-23T10:53:33.032Z,12.65
2019-02-23T10:56:05.027Z,12.70
2019-02-23T10:58:36.551Z,12.74
2019-02-23T11:01:09.059Z,12.81
2019-02-23T11:03:38.185Z,12.84
2019-02-23T11:06:10.202Z,12.87
2019-02-23T11:11:27.722Z,12.96
2019-02-23T11:13:58.214Z,13.02
2019-02-23T11:16:28.930Z,13.04
2019-02-23T11:19:06.493Z,13.07
2019-02-23T11:21:40.545Z,13.09
2019-02-23T11:24:10.072Z,13.12
2019-02-23T11:26:41.316Z,13.13
2019-02-23T11:29:13.161Z,13.16
2019-02-23T11:31:45.379Z,13.19
2019-02-23T11:34:16.864Z,13.20
2019-02-23T11:36:52.030Z,13.24
2019-02-23T11:39:26.654Z,13.28
2019-02-23T11:41:57.004Z,13.35
2019-02-23T11:47:25.465Z,13.46
2019-02-23T11:49:55.389Z,13.50
2019-02-23T11:52:28.724Z,13.53
2019-02-23T11:54:59.923Z,13.54
2019-02-23T11:57:30.675Z,13.56
2019-02-23T12:00:01.824Z,13.59
2019-02-23T12:02:51.740Z,13.60
2019-02-23T12:05:13.655Z,13.62
2019-02-23T12:07:45.327Z,13.63
2019-02-23T12:10:19.065Z,13.68
2019-02-23T12:12:49.823Z,13.72
2019-02-23T12:15:23.475Z,13.75
2019-02-23T12:17:55.322Z,13.75
2019-02-23T12:20:26.955Z,13.75
2019-02-23T12:22:57.589Z,13.77
2019-02-23T12:25:27.229Z,13.79
2019-02-23T12:27:56.339Z,13.84
2019-02-23T12:30:29.841Z,13.88
2019-02-23T12:33:00.076Z,13.90
2019-02-23T12:35:30.915Z,13.94
2019-02-23T12:38:01.548Z,13.94
2019-02-23T12:40:31.984Z,13.96
2019-02-23T12:43:08.588Z,13.98
2019-02-23T12:45:44.476Z,13.97
2019-02-23T12:48:14.580Z,13.99
2019-02-23T12:50:47.268Z,14.01
2019-02-23T12:53:19.167Z,14.02
2019-02-23T12:55:50.266Z,14.01
2019-02-23T12:58:26.045Z,14.04
2019-02-23T13:00:58.633Z,14.05
2019-02-23T13:03:30.601Z,14.04
2019-02-23T13:06:01.523Z,14.05
2019-02-23T13:10:45.495Z,14.09
2019-02-23T13:13:26.650Z,14.17
2019-02-23T13:16:04.169Z,14.21
2019-02-23T13:19:54.252Z,14.28
2019-02-23T13:24:38.937Z,14.29
2019-02-23T13:27:39.474Z,14.26
2019-02-23T13:30:26.943Z,14.18
2019-02-23T13:33:18.132Z,14.15
2019-02-23T13:35:58.572Z,14.14
2019-02-23T13:38:53.073Z,14.13
2019-02-23T13:41:56.521Z,14.13
2019-02-23T13:45:10.058Z,14.18
2019-02-23T13:48:22.582Z,14.24
2019-02-23T13:51:11.843Z,14.31
2019-02-23T13:54:23.126Z,14.35
2019-02-23T13:57:03.546Z,14.38
2019-02-23T13:59:57.670Z,14.38
2019-02-23T14:06:55.057Z,14.40
2019-02-23T14:09:40.710Z,14.43
2019-02-23T14:12:25.366Z,14.49
2019-02-23T14:15:11.993Z,14.51
2019-02-23T14:17:51.002Z,14.53
2019-02-23T14:20:42.361Z,14.53
2019-02-23T14:23:25.877Z,14.51
2019-02-23T14:26:10.497Z,14.53
2019-02-23T14:30:06.823Z,14.56
2019-02-23T14:34:52.574Z,14.58
2019-02-23T14:39:40.584Z,14.60
2019-02-23T14:42:28.861Z,14.56
2019-02-23T14:46:10.499Z,14.50
2019-02-23T14:50:13.671Z,14.46
2019-02-23T14:52:54.483Z,14.44
2019-02-23T14:55:39.899Z,14.41
2019-02-23T14:58:23.635Z,14.40
2019-02-23T15:02:13.128Z,14.41
2019-02-23T15:04:59.668Z,14.43
2019-02-23T15:07:54.005Z,14.47
2019-02-23T15:10:36.944Z,14.48
2019-02-23T15:14:18.342Z,14.48
2019-02-23T15:17:09.161Z,14.44
2019-02-23T15:20:22.869Z,14.47
2019-02-23T15:23:07.360Z,14.52
2019-02-23T15:25:56.014Z,14.53
2019-02-23T15:28:39.652Z,14.53
2019-02-23T15:31:26.910Z,14.51
2019-02-23T15:37:22.891Z,14.45
2019-02-23T15:40:03.000Z,14.43
2019-02-23T15:42:47.373Z,14.41
2019-02-23T15:45:34.852Z,14.40
2019-02-23T15:48:30.821Z,14.39
2019-02-23T15:51:09.406Z,14.43
2019-02-23T15:53:38.676Z,14.44
2019-02-23T15:59:19.155Z,14.36
2019-02-23T16:01:50.701Z,14.35
2019-02-23T16:04:26.913Z,14.33
2019-02-23T16:07:04.387Z,14.27
2019-02-23T16:09:37.212Z,14.21
2019-02-23T16:12:07.449Z,14.17
2019-02-23T16:14:41.185Z,14.14
2019-02-23T16:17:16.961Z,14.13
2019-02-23T16:19:46.803Z,14.09
2019-02-23T16:22:18.686Z,14.08
2019-02-23T16:24:46.859Z,14.07
2019-02-23T16:29:51.252Z,13.97
2019-02-23T16:32:25.309Z,13.93
2019-02-23T16:34:57.688Z,13.90
2019-02-23T16:37:30.804Z,13.86
2019-02-23T16:40:01.580Z,13.82
2019-02-23T16:42:31.045Z,13.79
2019-02-23T16:45:02.251Z,13.76
2019-02-23T16:47:36.766Z,13.71
2019-02-23T16:50:06.675Z,13.65
2019-02-23T16:52:41.826Z,13.60
2019-02-23T16:55:11.663Z,13.57
2019-02-23T16:57:41.494Z,13.54
2019-02-23T17:00:12.032Z,13.51
2019-02-23T17:02:50.203Z,13.48
2019-02-23T17:05:21.170Z,13.43
2019-02-23T17:07:53.763Z,13.39
2019-02-23T17:10:24.708Z,13.33
2019-02-23T17:13:00.329Z,13.30
2019-02-23T17:15:31.789Z,13.28
2019-02-23T17:18:05.155Z,13.25
2019-02-23T17:20:39.311Z,13.22
2019-02-23T17:23:14.507Z,13.21
2019-02-23T17:25:49.210Z,13.18
2019-02-23T17:28:19.639Z,13.15
2019-02-23T17:30:51.106Z,13.13
2019-02-23T17:33:27.993Z,13.10
2019-02-23T17:35:56.869Z,13.09
2019-02-23T17:38:34.646Z,13.07
2019-02-23T17:41:13.515Z,13.06
2019-02-23T17:43:42.805Z,13.05
2019-02-23T17:46:27.800Z,13.03
2019-02-23T17:49:03.584Z,13.02
2019-02-23T17:51:35.131Z,13.00
2019-02-23T17:54:06.458Z,13.00
2019-02-23T17:56:36.009Z,12.98
2019-02-23T17:59:07.511Z,12.98
2019-02-23T18:01:37.912Z,12.98
2019-02-23T18:04:07.445Z,12.96
2019-02-23T18:06:36.598Z,12.93
2019-02-23T18:09:06.225Z,12.92
2019-02-23T18:11:42.171Z,12.89
2019-02-23T18:14:15.779Z,12.85
2019-02-23T18:16:47.178Z,12.80
2019-02-23T18:19:19.360Z,12.78
2019-02-23T18:21:55.143Z,12.74
2019-02-23T18:24:26.031Z,12.71
2019-02-23T18:26:55.693Z,12.68
2019-02-23T18:29:25.960Z,12.65
2019-02-23T18:31:55.368Z,12.63
2019-02-23T18:34:43.121Z,12.60
2019-02-23T18:37:14.633Z,12.57
2019-02-23T18:39:44.697Z,12.57
2019-02-23T18:42:18.232Z,12.58
2019-02-23T18:44:51.277Z,12.59
2019-02-23T18:47:22.602Z,12.59
2019-02-23T18:49:53.067Z,12.59
2019-02-23T18:52:27.246Z,12.58
2019-02-23T18:54:58.225Z,12.58
2019-02-23T18:57:29.716Z,12.59
2019-02-23T19:00:01.215Z,12.58
2019-02-23T19:02:31.800Z,12.58
2019-02-23T19:05:03.278Z,12.59
2019-02-23T19:07:37.629Z,12.57
2019-02-23T19:10:15.159Z,12.59
2019-02-23T19:12:45.075Z,12.59
2019-02-23T19:15:20.347Z,12.61
2019-02-23T19:17:54.881Z,12.60
2019-02-23T19:20:24.480Z,12.60
2019-02-23T19:22:55.513Z,12.62
2019-02-23T19:25:26.349Z,12.61
2019-02-23T19:27:57.375Z,12.62
2019-02-23T19:30:29.487Z,12.61
2019-02-23T19:33:02.911Z,12.61
2019-02-23T19:35:35.053Z,12.62
2019-02-23T19:38:09.038Z,12.61
2019-02-23T19:40:40.879Z,12.61
2019-02-23T19:43:10.660Z,12.61
2019-02-23T19:45:43.113Z,12.58
2019-02-23T19:48:15.737Z,12.57
2019-02-23T19:50:51.586Z,12.55
2019-02-23T19:53:20.941Z,12.55
2019-02-23T19:55:51.322Z,12.55
2019-02-23T19:58:21.444Z,12.53
2019-02-23T20:00:51.627Z,12.53
2019-02-23T20:03:27.608Z,12.53
2019-02-23T20:06:05.669Z,12.50
2019-02-23T20:08:36.404Z,12.51
2019-02-23T20:11:10.462Z,12.52
2019-02-23T20:13:47.293Z,12.52
2019-02-23T20:16:20.100Z,12.54
2019-02-23T20:18:52.188Z,12.54
2019-02-23T20:21:24.000Z,12.54
2019-02-23T20:26:55.481Z,12.57
2019-02-23T20:32:02.883Z,12.56
2019-02-23T20:34:31.929Z,12.52
2019-02-23T20:37:02.062Z,12.50
2019-02-23T20:39:34.244Z,12.48
2019-02-23T20:42:04.790Z,12.45
2019-02-23T20:44:38.323Z,12.43
2019-02-23T20:47:10.170Z,12.41
2019-02-23T20:49:40.060Z,12.38
2019-02-23T20:52:12.166Z,12.37
2019-02-23T20:54:43.941Z,12.33
2019-02-23T20:57:25.610Z,12.32
2019-02-23T20:59:58.496Z,12.31
2019-02-23T21:02:32.585Z,12.31
2019-02-23T21:05:05.172Z,12.30
2019-02-23T21:07:42.683Z,12.28
2019-02-23T21:10:13.548Z,12.25
2019-02-23T21:12:51.889Z,12.24
2019-02-23T21:15:23.278Z,12.22
2019-02-23T21:17:56.260Z,12.20
2019-02-23T21:20:26.281Z,12.18
2019-02-23T21:22:57.545Z,12.15
2019-02-23T21:25:28.029Z,12.10
2019-02-23T21:27:59.961Z,12.08
2019-02-23T21:30:31.147Z,12.05
2019-02-23T21:33:00.456Z,12.04
2019-02-23T21:35:31.101Z,12.04
2019-02-23T21:38:02.381Z,12.02
2019-02-23T21:40:36.578Z,12.02
2019-02-23T21:43:12.503Z,12.00
2019-02-23T21:45:43.739Z,11.97
2019-02-23T21:48:14.807Z,11.95
2019-02-23T21:50:47.847Z,11.95
2019-02-23T21:53:21.777Z,11.94
2019-02-23T21:55:53.431Z,11.93
2019-02-23T21:58:26.624Z,11.93
2019-02-23T22:00:56.955Z,11.90
2019-02-23T22:03:28.924Z,11.89
2019-02-23T22:06:00.984Z,11.88
2019-02-23T22:08:32.075Z,11.88
2019-02-23T22:13:42.842Z,11.86
2019-02-23T22:16:15.246Z,11.85
2019-02-23T22:18:47.605Z,11.82
2019-02-23T22:21:20.123Z,11.82
2019-02-23T22:23:52.535Z,11.77
2019-02-23T22:26:23.280Z,11.73
2019-02-23T22:28:53.375Z,11.67
2019-02-23T22:31:24.046Z,11.63
2019-02-23T22:33:55.808Z,11.57
2019-02-23T22:36:25.867Z,11.53
2019-02-23T22:38:55.330Z,11.48
2019-02-23T22:41:25.020Z,11.43
2019-02-23T22:43:57.460Z,11.39
2019-02-23T22:46:30.354Z,11.36
2019-02-23T22:48:59.989Z,11.32
2019-02-23T22:51:33.602Z,11.28
2019-02-23T22:54:07.675Z,11.23
2019-02-23T22:56:43.657Z,11.16
2019-02-23T22:59:14.899Z,11.12
2019-02-23T23:01:56.498Z,11.07
2019-02-23T23:04:29.008Z,11.02
2019-02-23T23:07:05.659Z,10.97
2019-02-23T23:09:35.969Z,10.94
2019-02-23T23:14:41.256Z,10.79
2019-02-23T23:17:12.522Z,10.73
2019-02-23T23:19:54.605Z,10.71
2019-02-23T23:22:26.565Z,10.67
2019-02-23T23:25:00.638Z,10.65
2019-02-23T23:27:37.453Z,10.61
2019-02-23T23:32:43.405Z,10.52
2019-02-23T23:35:16.417Z,10.45
2019-02-23T23:37:52.031Z,10.34
2019-02-23T23:40:32.366Z,10.28
2019-02-23T23:43:10.914Z,10.19
2019-02-23T23:45:44.887Z,10.11
2019-02-23T23:48:16.291Z,10.06
2019-02-23T23:50:52.781Z,10.03
2019-02-23T23:53:24.744Z,10.00
2019-02-23T23:55:54.422Z,9.88
2019-02-23T23:58:29.399Z,9.77
